createdAt,value
2019-03-03T00:01:59.603Z,8.97
2019-03-03T00:04:27.984Z,9.01
2019-03-03T00:06:56.387Z,8.99
2019-03-03T00:09:24.764Z,9.04
2019-03-03T00:11:53.426Z,8.99
2019-03-03T00:14:21.815Z,8.99
2019-03-03T00:16:50.204Z,8.99
2019-03-03T00:19:18.867Z,8.92
2019-03-03T00:21:47.250Z,8.96
2019-03-03T00:24:15.939Z,8.92
2019-03-03T00:26:44.323Z,8.82
2019-03-03T00:29:12.702Z,8.84
2019-03-03T00:32:21.025Z,8.89
2019-03-03T00:34:49.463Z,8.87
2019-03-03T00:37:36.973Z,8.92
2019-03-03T00:40:45.500Z,8.90
2019-03-03T00:43:33.012Z,8.87
2019-03-03T00:49:09.835Z,9.03
2019-03-03T00:54:46.666Z,9.04
2019-03-03T01:00:44.045Z,9.05
2019-03-03T01:08:59.952Z,8.86
2019-03-03T01:11:47.698Z,9.02
2019-03-03T01:14:35.436Z,9.01
2019-03-03T01:17:23.086Z,9.00
2019-03-03T01:20:10.595Z,8.95
2019-03-03T01:25:28.076Z,9.10
2019-03-03T01:27:56.711Z,9.04
2019-03-03T01:30:25.395Z,9.08
2019-03-03T01:32:54.085Z,9.10
2019-03-03T01:35:22.462Z,9.06
2019-03-03T01:37:50.843Z,9.06
2019-03-03T01:40:19.237Z,9.04
2019-03-03T01:42:47.619Z,9.12
2019-03-03T01:45:16.385Z,9.02
2019-03-03T01:47:44.785Z,9.00
2019-03-03T01:50:53.135Z,8.99
2019-03-03T01:53:21.525Z,9.01
2019-03-03T01:55:49.907Z,8.95
2019-03-03T01:58:18.305Z,9.03
2019-03-03T02:01:06.091Z,9.04
2019-03-03T02:06:10.194Z,9.12
2019-03-03T02:08:38.574Z,9.02
2019-03-03T02:11:26.598Z,9.03
2019-03-03T02:13:55.048Z,9.02
2019-03-03T02:16:23.496Z,9.04
2019-03-03T02:18:51.890Z,9.06
2019-03-03T02:21:20.338Z,9.19
2019-03-03T02:23:48.726Z,9.06
2019-03-03T02:26:17.382Z,9.03
2019-03-03T02:28:46.007Z,9.03
2019-03-03T02:31:14.384Z,9.01
2019-03-03T02:33:43.133Z,9.07
2019-03-03T02:36:11.516Z,9.03
2019-03-03T02:38:39.894Z,9.07
2019-03-03T02:41:08.591Z,9.09
2019-03-03T02:44:17.172Z,9.12
2019-03-03T02:46:45.567Z,9.07
2019-03-03T02:49:14.277Z,9.14
2019-03-03T02:51:42.661Z,9.12
2019-03-03T02:54:11.065Z,9.10
2019-03-03T02:56:39.452Z,9.09
2019-03-03T02:59:07.833Z,9.07
2019-03-03T03:01:55.333Z,8.99
2019-03-03T03:04:23.714Z,8.90
2019-03-03T03:07:11.221Z,8.77
2019-03-03T03:12:47.834Z,8.71
2019-03-03T03:15:35.321Z,8.72
2019-03-03T03:21:02.343Z,8.69
2019-03-03T03:23:49.838Z,8.78
2019-03-03T03:26:37.591Z,8.87
2019-03-03T03:29:25.089Z,8.85
2019-03-03T03:32:12.600Z,8.95
2019-03-03T03:37:49.186Z,8.77
2019-03-03T03:40:36.680Z,8.74
2019-03-03T03:46:00.101Z,8.68
2019-03-03T03:48:47.601Z,8.63
2019-03-03T03:54:11.035Z,8.51
2019-03-03T03:56:58.627Z,8.46
2019-03-03T03:59:46.357Z,8.30
2019-03-03T04:02:33.939Z,8.19
2019-03-03T04:05:42.231Z,8.20
2019-03-03T04:08:29.747Z,8.19
2019-03-03T04:11:17.236Z,8.17
2019-03-03T04:14:04.751Z,8.17
2019-03-03T04:19:41.571Z,8.10
2019-03-03T04:25:18.209Z,7.97
2019-03-03T04:28:05.712Z,7.94
2019-03-03T04:33:28.833Z,7.93
2019-03-03T04:39:26.209Z,7.92
2019-03-03T04:42:13.699Z,7.96
2019-03-03T04:45:01.210Z,8.07
2019-03-03T04:47:48.703Z,7.94
2019-03-03T04:55:46.916Z,8.03
2019-03-03T05:01:23.814Z,7.94
2019-03-03T05:04:11.311Z,7.88
2019-03-03T05:09:38.032Z,7.84
2019-03-03T05:12:46.323Z,7.84
2019-03-03T05:15:33.895Z,7.83
2019-03-03T05:18:21.628Z,7.87
2019-03-03T05:23:25.993Z,7.89
2019-03-03T05:25:54.387Z,7.84
2019-03-03T05:28:22.766Z,7.80
2019-03-03T05:30:51.412Z,7.59
2019-03-03T05:33:19.812Z,7.58
2019-03-03T05:35:48.192Z,7.43
2019-03-03T05:38:16.588Z,7.52
2019-03-03T05:43:53.051Z,7.48
2019-03-03T05:46:21.430Z,7.27
2019-03-03T05:48:50.066Z,7.38
2019-03-03T05:51:18.788Z,7.28
2019-03-03T05:53:47.171Z,7.18
2019-03-03T05:56:16.392Z,6.99
2019-03-03T05:58:45.690Z,7.03
2019-03-03T06:01:14.071Z,7.07
2019-03-03T06:03:42.729Z,7.10
2019-03-03T06:06:11.352Z,7.11
2019-03-03T06:08:39.746Z,7.17
2019-03-03T06:11:08.136Z,7.19
2019-03-03T06:13:36.514Z,7.31
2019-03-03T06:16:04.912Z,7.41
2019-03-03T06:18:33.618Z,7.46
2019-03-03T06:21:02.015Z,7.64
2019-03-03T06:23:30.679Z,7.70
2019-03-03T06:25:59.071Z,7.72
2019-03-03T06:28:27.747Z,7.78
2019-03-03T06:30:56.131Z,7.85
2019-03-03T06:33:24.529Z,7.89
2019-03-03T06:35:53.190Z,7.97
2019-03-03T06:38:21.580Z,7.97
2019-03-03T06:40:50.250Z,8.09
2019-03-03T06:43:18.637Z,8.08
2019-03-03T06:46:06.371Z,8.12
2019-03-03T06:48:35.050Z,8.04
2019-03-03T06:51:03.738Z,8.10
2019-03-03T06:53:32.423Z,8.19
2019-03-03T06:56:01.107Z,8.23
2019-03-03T06:58:29.498Z,8.09
2019-03-03T07:00:57.878Z,8.11
2019-03-03T07:03:26.278Z,8.13
2019-03-03T07:05:54.727Z,8.19
2019-03-03T07:08:23.106Z,8.19
2019-03-03T07:11:10.843Z,8.24
2019-03-03T07:13:39.523Z,8.31
2019-03-03T07:16:08.159Z,8.37
2019-03-03T07:18:36.586Z,8.67
2019-03-03T07:21:04.926Z,8.71
2019-03-03T07:23:33.651Z,8.76
2019-03-03T07:26:02.035Z,8.88
2019-03-03T07:28:30.422Z,9.05
2019-03-03T07:30:59.099Z,8.93
2019-03-03T07:36:16.582Z,9.34
2019-03-03T07:38:45.206Z,9.48
2019-03-03T07:41:13.598Z,9.66
2019-03-03T07:43:41.971Z,9.66
2019-03-03T07:46:10.608Z,9.85
2019-03-03T07:48:39.251Z,10.02
2019-03-03T07:51:07.631Z,9.96
2019-03-03T07:53:36.023Z,10.06
2019-03-03T07:56:04.407Z,10.16
2019-03-03T07:58:33.075Z,10.14
2019-03-03T08:01:01.461Z,10.14
2019-03-03T08:03:29.835Z,10.28
2019-03-03T08:05:58.229Z,10.12
2019-03-03T08:08:26.892Z,10.19
2019-03-03T08:10:55.579Z,10.26
2019-03-03T08:13:23.963Z,10.18
2019-03-03T08:15:52.358Z,10.26
2019-03-03T08:18:20.743Z,10.26
2019-03-03T08:21:08.490Z,10.35
2019-03-03T08:23:37.095Z,10.36
2019-03-03T08:26:25.078Z,10.26
2019-03-03T08:28:53.759Z,10.36
2019-03-03T08:31:34.210Z,10.35
2019-03-03T08:34:15.081Z,10.30
2019-03-03T08:36:43.779Z,10.33
2019-03-03T08:39:12.162Z,10.36
2019-03-03T08:47:18.419Z,10.51
2019-03-03T08:55:34.072Z,10.58
2019-03-03T08:58:21.815Z,10.59
2019-03-03T09:03:49.073Z,10.57
2019-03-03T09:06:36.820Z,10.49
2019-03-03T09:09:45.349Z,10.59
2019-03-03T09:15:31.931Z,10.77
2019-03-03T09:20:55.063Z,10.69
2019-03-03T09:23:42.816Z,10.74
2019-03-03T09:26:30.556Z,10.81
2019-03-03T09:29:13.047Z,11.06
2019-03-03T09:34:49.964Z,11.32
2019-03-03T09:37:37.465Z,11.46
2019-03-03T09:40:45.772Z,11.15
2019-03-03T09:46:22.352Z,10.98
2019-03-03T09:51:59.003Z,11.24
2019-03-03T09:54:46.500Z,11.27
2019-03-03T09:57:34.075Z,11.17
2019-03-03T10:00:40.913Z,11.11
2019-03-03T10:06:07.961Z,11.03
2019-03-03T10:11:44.787Z,11.11
2019-03-03T10:14:51.864Z,11.32
2019-03-03T10:17:39.606Z,11.50
2019-03-03T10:20:48.137Z,11.66
2019-03-03T10:23:35.898Z,12.01
2019-03-03T10:26:23.464Z,11.83
2019-03-03T10:29:10.970Z,11.77
2019-03-03T10:31:58.467Z,11.88
2019-03-03T10:40:01.111Z,12.32
2019-03-03T10:42:48.859Z,12.36
2019-03-03T10:45:36.374Z,12.36
2019-03-03T10:48:44.659Z,12.53
2019-03-03T10:51:53.215Z,12.58
2019-03-03T10:57:30.444Z,12.70
2019-03-03T11:00:18.183Z,12.75
2019-03-03T11:03:05.768Z,12.67
2019-03-03T11:05:53.262Z,12.45
2019-03-03T11:08:41.005Z,12.55
2019-03-03T11:11:28.577Z,12.44
2019-03-03T11:14:36.889Z,12.17
2019-03-03T11:20:13.789Z,11.95
2019-03-03T11:23:01.598Z,12.27
2019-03-03T11:28:44.230Z,12.45
2019-03-03T11:31:31.723Z,12.28
2019-03-03T11:34:19.257Z,12.45
2019-03-03T11:37:06.820Z,12.18
2019-03-03T11:45:45.516Z,12.04
2019-03-03T11:48:33.017Z,12.12
2019-03-03T11:51:20.759Z,12.24
2019-03-03T11:59:37.299Z,12.29
2019-03-03T12:02:53.766Z,12.17
2019-03-03T12:05:35.135Z,12.33
2019-03-03T12:08:22.659Z,12.28
2019-03-03T12:11:10.164Z,12.42
2019-03-03T12:16:37.581Z,12.42
2019-03-03T12:24:49.697Z,12.24
2019-03-03T12:27:37.199Z,12.16
2019-03-03T12:30:45.730Z,12.08
2019-03-03T12:33:33.240Z,12.32
2019-03-03T12:36:20.739Z,12.46
2019-03-03T12:39:08.498Z,12.71
2019-03-03T12:41:56.223Z,12.82
2019-03-03T12:44:43.974Z,13.06
2019-03-03T12:50:20.594Z,13.27
2019-03-03T12:53:08.323Z,13.20
2019-03-03T12:55:56.076Z,13.37
2019-03-03T12:58:43.819Z,13.56
2019-03-03T13:04:07.058Z,13.85
2019-03-03T13:06:54.573Z,13.78
2019-03-03T13:09:42.078Z,13.74
2019-03-03T13:12:29.608Z,13.69
2019-03-03T13:18:25.540Z,13.22
2019-03-03T13:21:13.032Z,13.22
2019-03-03T13:29:34.755Z,13.20
2019-03-03T13:32:22.255Z,13.17
2019-03-03T13:35:10.036Z,13.37
2019-03-03T13:40:46.767Z,13.31
2019-03-03T13:43:15.151Z,13.24
2019-03-03T13:45:43.535Z,13.20
2019-03-03T13:48:11.952Z,13.04
2019-03-03T13:50:40.810Z,13.06
2019-03-03T13:53:09.599Z,13.09
2019-03-03T13:55:38.304Z,13.00
2019-03-03T13:58:06.684Z,12.78
2019-03-03T14:00:54.525Z,12.70
2019-03-03T14:03:23.138Z,12.70
2019-03-03T14:05:51.878Z,12.82
2019-03-03T14:08:20.348Z,12.97
2019-03-03T14:10:48.798Z,12.98
2019-03-03T14:13:17.187Z,13.02
2019-03-03T14:16:05.028Z,13.03
2019-03-03T14:18:33.732Z,13.03
2019-03-03T14:21:02.117Z,13.17
2019-03-03T14:23:30.805Z,13.29
2019-03-03T14:25:59.187Z,13.17
2019-03-03T14:28:27.866Z,13.46
2019-03-03T14:30:56.547Z,13.59
2019-03-03T14:33:24.940Z,13.84
2019-03-03T14:35:53.403Z,13.64
2019-03-03T14:38:21.863Z,13.63
2019-03-03T14:40:50.251Z,13.63
2019-03-03T14:43:18.955Z,13.80
2019-03-03T14:45:47.743Z,13.92
2019-03-03T14:48:16.133Z,13.70
2019-03-03T14:50:44.740Z,13.70
2019-03-03T14:53:32.743Z,13.75
2019-03-03T14:56:01.138Z,13.75
2019-03-03T14:58:48.882Z,13.77
2019-03-03T15:01:17.323Z,13.77
2019-03-03T15:03:45.710Z,13.75
2019-03-03T15:06:33.453Z,13.56
2019-03-03T15:09:02.129Z,13.56
2019-03-03T15:11:30.822Z,13.42
2019-03-03T15:13:59.219Z,13.55
2019-03-03T15:16:27.898Z,13.41
2019-03-03T15:18:56.276Z,13.43
2019-03-03T15:21:32.526Z,13.22
2019-03-03T15:24:20.578Z,13.21
2019-03-03T15:26:49.251Z,13.13
2019-03-03T15:29:17.630Z,13.21
2019-03-03T15:31:46.419Z,13.12
2019-03-03T15:34:14.847Z,13.16
2019-03-03T15:36:43.459Z,13.18
2019-03-03T15:39:31.222Z,13.08
2019-03-03T15:41:59.594Z,13.03
2019-03-03T15:44:28.285Z,13.03
2019-03-03T15:46:56.966Z,12.95
2019-03-03T15:49:25.662Z,12.92
2019-03-03T15:51:54.340Z,12.96
2019-03-03T15:54:22.736Z,12.86
2019-03-03T15:56:51.121Z,12.83
2019-03-03T15:59:19.882Z,12.76
2019-03-03T16:01:48.278Z,12.76
2019-03-03T16:04:16.720Z,12.73
2019-03-03T16:06:45.429Z,12.76
2019-03-03T16:12:08.610Z,12.77
2019-03-03T16:14:37.291Z,12.72
2019-03-03T16:17:05.806Z,12.69
2019-03-03T16:19:34.206Z,12.60
2019-03-03T16:22:02.592Z,12.58
2019-03-03T16:24:50.677Z,12.50
2019-03-03T16:27:19.364Z,12.45
2019-03-03T16:29:48.047Z,12.39
2019-03-03T16:32:16.452Z,12.28
2019-03-03T16:34:45.111Z,12.31
2019-03-03T16:37:13.800Z,12.33
2019-03-03T16:39:42.204Z,12.31
2019-03-03T16:42:10.860Z,12.20
2019-03-03T16:44:39.548Z,12.23
2019-03-03T16:47:07.951Z,12.23
2019-03-03T16:49:36.341Z,12.11
2019-03-03T16:52:04.787Z,12.14
2019-03-03T16:54:33.475Z,12.14
2019-03-03T16:57:02.095Z,12.04
2019-03-03T16:59:30.526Z,11.97
2019-03-03T17:01:59.226Z,12.03
2019-03-03T17:04:27.607Z,11.93
2019-03-03T17:06:55.993Z,11.86
2019-03-03T17:09:24.390Z,11.86
2019-03-03T17:11:53.043Z,11.91
2019-03-03T17:14:21.742Z,11.91
2019-03-03T17:16:50.144Z,11.78
2019-03-03T17:19:18.523Z,11.83
2019-03-03T17:21:46.939Z,11.60
2019-03-03T17:24:15.307Z,11.56
2019-03-03T17:26:43.688Z,11.62
2019-03-03T17:29:12.416Z,11.72
2019-03-03T17:31:40.872Z,11.78
2019-03-03T17:34:13.102Z,11.74
2019-03-03T17:36:40.007Z,11.75
2019-03-03T17:39:48.562Z,11.76
2019-03-03T17:42:16.942Z,11.77
2019-03-03T17:44:45.322Z,11.73
2019-03-03T17:47:13.971Z,11.67
2019-03-03T17:49:42.362Z,11.63
2019-03-03T17:52:10.760Z,11.65
2019-03-03T17:54:39.145Z,11.63
2019-03-03T17:57:07.525Z,11.57
2019-03-03T17:59:36.174Z,11.55
2019-03-03T18:05:12.830Z,11.49
2019-03-03T18:07:41.292Z,11.43
2019-03-03T18:10:49.596Z,11.42
2019-03-03T18:13:17.975Z,11.26
2019-03-03T18:15:46.376Z,11.23
2019-03-03T18:18:15.103Z,11.11
2019-03-03T18:20:43.538Z,11.12
2019-03-03T18:23:11.938Z,10.97
2019-03-03T18:25:40.654Z,11.05
2019-03-03T18:28:09.057Z,11.04
2019-03-03T18:30:37.446Z,10.96
2019-03-03T18:33:05.825Z,10.84
2019-03-03T18:35:34.215Z,10.73
2019-03-03T18:38:02.958Z,10.60
2019-03-03T18:40:31.356Z,10.45
2019-03-03T18:43:00.020Z,10.32
2019-03-03T18:45:28.705Z,10.28
2019-03-03T18:47:57.390Z,10.30
2019-03-03T18:51:05.936Z,10.33
2019-03-03T18:53:34.326Z,10.22
2019-03-03T18:56:02.708Z,10.29
2019-03-03T18:58:31.100Z,10.37
2019-03-03T19:00:59.557Z,10.45
2019-03-03T19:06:22.373Z,10.52
2019-03-03T19:08:50.754Z,10.61
2019-03-03T19:11:19.148Z,10.62
2019-03-03T19:13:47.842Z,10.49
2019-03-03T19:16:16.524Z,10.59
2019-03-03T19:18:45.211Z,10.64
2019-03-03T19:21:13.597Z,10.58
2019-03-03T19:23:41.993Z,10.65
2019-03-03T19:26:10.376Z,10.59
2019-03-03T19:28:39.031Z,10.54
2019-03-03T19:31:07.483Z,10.47
2019-03-03T19:34:15.788Z,10.59
2019-03-03T19:36:45.818Z,10.57
2019-03-03T19:39:14.839Z,10.43
2019-03-03T19:41:43.237Z,10.36
2019-03-03T19:44:11.616Z,10.32
2019-03-03T19:46:40.288Z,10.30
2019-03-03T19:49:08.972Z,10.46
2019-03-03T19:51:37.656Z,10.32
2019-03-03T19:54:06.164Z,10.38
2019-03-03T19:56:34.621Z,10.45
2019-03-03T19:59:03.304Z,10.31
2019-03-03T20:01:31.758Z,10.52
2019-03-03T20:04:00.470Z,10.51
2019-03-03T20:06:28.851Z,10.55
2019-03-03T20:08:57.535Z,10.65
2019-03-03T20:11:26.223Z,10.75
2019-03-03T20:13:54.604Z,10.79
2019-03-03T20:16:23.019Z,10.76
2019-03-03T20:18:51.392Z,10.73
2019-03-03T20:21:20.042Z,10.68
2019-03-03T20:23:48.485Z,10.65
2019-03-03T20:26:16.893Z,10.67
2019-03-03T20:28:45.284Z,10.57
2019-03-03T20:31:13.677Z,10.59
2019-03-03T20:33:42.346Z,10.59
2019-03-03T20:36:11.030Z,10.50
2019-03-03T20:38:39.715Z,10.56
2019-03-03T20:41:08.113Z,10.63
2019-03-03T20:43:36.494Z,10.52
2019-03-03T20:46:05.012Z,10.59
2019-03-03T20:48:33.399Z,10.58
2019-03-03T20:51:02.154Z,10.58
2019-03-03T20:53:50.107Z,10.42
2019-03-03T20:56:18.491Z,10.46
2019-03-03T20:58:47.142Z,10.45
2019-03-03T21:01:15.523Z,10.49
2019-03-03T21:03:44.144Z,10.43
2019-03-03T21:06:12.534Z,10.33
2019-03-03T21:08:41.253Z,10.28
2019-03-03T21:11:09.647Z,10.12
2019-03-03T21:13:38.086Z,9.96
2019-03-03T21:16:06.800Z,10.06
2019-03-03T21:18:35.498Z,10.03
2019-03-03T21:21:04.272Z,10.02
2019-03-03T21:23:32.958Z,9.90
2019-03-03T21:26:01.664Z,9.84
2019-03-03T21:28:30.055Z,9.84
2019-03-03T21:30:58.661Z,9.84
2019-03-03T21:33:27.293Z,9.84
2019-03-03T21:35:55.686Z,9.80
2019-03-03T21:38:24.365Z,9.85
2019-03-03T21:40:53.146Z,9.65
2019-03-03T21:43:21.835Z,9.57
2019-03-03T21:45:50.213Z,9.47
2019-03-03T21:48:18.898Z,9.47
2019-03-03T21:50:47.684Z,9.49
2019-03-03T21:53:16.474Z,9.47
2019-03-03T21:55:45.159Z,9.54
2019-03-03T21:58:13.549Z,9.43
2019-03-03T22:01:22.102Z,9.37
2019-03-03T22:03:50.497Z,9.23
2019-03-03T22:06:19.131Z,9.33
2019-03-03T22:08:47.814Z,9.61
2019-03-03T22:11:16.201Z,9.61
2019-03-03T22:13:44.580Z,9.66
2019-03-03T22:16:12.984Z,9.77
2019-03-03T22:18:41.630Z,9.83
2019-03-03T22:21:10.332Z,9.85
2019-03-03T22:23:38.724Z,10.00
2019-03-03T22:26:07.103Z,9.94
2019-03-03T22:28:36.474Z,9.96
2019-03-03T22:31:05.869Z,9.90
2019-03-03T22:33:34.263Z,9.91
2019-03-03T22:36:02.642Z,9.84
2019-03-03T22:38:31.018Z,9.69
2019-03-03T22:40:59.701Z,9.74
2019-03-03T22:43:28.395Z,9.54
2019-03-03T22:45:56.790Z,9.45
2019-03-03T22:48:25.450Z,9.50
2019-03-03T22:50:54.139Z,9.34
2019-03-03T22:53:22.523Z,9.31
2019-03-03T22:55:51.206Z,9.49
2019-03-03T22:58:19.607Z,9.59
2019-03-03T23:01:26.655Z,9.37
2019-03-03T23:04:35.199Z,9.47
2019-03-03T23:07:43.775Z,9.20
2019-03-03T23:10:50.744Z,9.07
2019-03-03T23:13:59.103Z,8.98
2019-03-03T23:17:07.634Z,8.88
2019-03-03T23:20:14.870Z,8.70
2019-03-03T23:23:22.084Z,8.70
2019-03-03T23:26:30.634Z,8.64
2019-03-03T23:28:59.093Z,8.45
2019-03-03T23:31:27.795Z,8.48
2019-03-03T23:33:56.488Z,8.53
2019-03-03T23:36:24.885Z,8.59
2019-03-03T23:38:53.652Z,8.75
2019-03-03T23:41:22.042Z,8.82
2019-03-03T23:43:50.713Z,8.77
2019-03-03T23:46:19.109Z,8.94
2019-03-03T23:51:55.887Z,10.39
2019-03-03T23:54:24.329Z,10.92
2019-03-03T23:56:52.720Z,11.20
2019-03-03T23:59:21.113Z,11.38
